createdAt,value
2018-04-28T00:00:06.442Z,996.95
2018-04-28T00:01:06.418Z,996.94
2018-04-28T00:02:06.399Z,996.97
2018-04-28T00:03:06.374Z,996.91
2018-04-28T00:04:06.350Z,996.95
2018-04-28T00:05:06.331Z,996.92
2018-04-28T00:06:06.306Z,996.95
2018-04-28T00:07:06.286Z,996.93
2018-04-28T00:08:06.263Z,996.94
2018-04-28T00:09:06.236Z,996.95
2018-04-28T00:10:06.214Z,996.95
2018-04-28T00:11:06.193Z,996.98
2018-04-28T00:12:06.169Z,996.96
2018-04-28T00:13:06.153Z,996.91
2018-04-28T00:14:06.125Z,996.95
2018-04-28T00:15:06.099Z,996.93
2018-04-28T00:16:06.078Z,996.95
2018-04-28T00:17:06.054Z,996.96
2018-04-28T00:18:06.033Z,996.97
2018-04-28T00:19:06.010Z,996.98
2018-04-28T00:20:05.987Z,996.98
2018-04-28T00:21:05.967Z,996.95
2018-04-28T00:22:05.943Z,996.95
2018-04-28T00:23:05.918Z,997.02
2018-04-28T00:24:05.895Z,996.98
2018-04-28T00:25:05.874Z,997
2018-04-28T00:26:05.849Z,997.01
2018-04-28T00:27:05.828Z,997.04
2018-04-28T00:28:05.808Z,997.07
2018-04-28T00:29:05.786Z,997.05
2018-04-28T00:30:05.760Z,997.05
2018-04-28T00:31:05.737Z,997.07
2018-04-28T00:32:05.715Z,997.06
2018-04-28T00:33:05.691Z,997.07
2018-04-28T00:34:05.669Z,997.1
2018-04-28T00:35:05.646Z,997.08
2018-04-28T00:36:05.624Z,997.07
2018-04-28T00:37:05.601Z,997.08
2018-04-28T00:38:05.578Z,997.12
2018-04-28T00:39:05.555Z,997.14
2018-04-28T00:40:05.534Z,997.14
2018-04-28T00:41:05.510Z,997.12
2018-04-28T00:42:05.487Z,997.15
2018-04-28T00:43:05.575Z,997.16
2018-04-28T00:44:05.443Z,997.17
2018-04-28T00:45:05.419Z,997.2
2018-04-28T00:46:05.397Z,997.17
2018-04-28T00:47:05.377Z,997.22
2018-04-28T00:48:05.351Z,997.19
2018-04-28T00:49:05.329Z,997.22
2018-04-28T00:50:05.306Z,997.2
2018-04-28T00:51:05.285Z,997.22
2018-04-28T00:52:05.261Z,997.23
2018-04-28T00:53:05.238Z,997.21
2018-04-28T00:54:05.223Z,997.26
2018-04-28T00:55:05.191Z,997.26
2018-04-28T00:56:05.170Z,997.24
2018-04-28T00:57:05.155Z,997.33
2018-04-28T00:58:05.125Z,997.25
2018-04-28T00:59:05.101Z,997.3
2018-04-28T01:00:05.079Z,997.33
2018-04-28T01:01:05.056Z,997.33
2018-04-28T01:02:05.040Z,997.34
2018-04-28T01:03:05.012Z,997.36
2018-04-28T01:04:04.992Z,997.37
2018-04-28T01:05:04.965Z,997.35
2018-04-28T01:06:04.941Z,997.4
2018-04-28T01:07:04.920Z,997.4
2018-04-28T01:08:04.897Z,997.4
2018-04-28T01:09:04.883Z,997.45
2018-04-28T01:10:04.851Z,997.4
2018-04-28T01:11:04.829Z,997.4
2018-04-28T01:12:04.807Z,997.43
2018-04-28T01:13:04.784Z,997.44
2018-04-28T01:14:04.761Z,997.44
2018-04-28T01:15:04.738Z,997.47
2018-04-28T01:16:04.718Z,997.46
2018-04-28T01:17:04.693Z,997.46
2018-04-28T01:18:04.670Z,997.45
2018-04-28T01:19:04.647Z,997.46
2018-04-28T01:20:04.626Z,997.46
2018-04-28T01:21:04.602Z,997.44
2018-04-28T01:22:04.581Z,997.45
2018-04-28T01:23:04.558Z,997.42
2018-04-28T01:24:04.535Z,997.45
2018-04-28T01:25:04.512Z,997.49
2018-04-28T01:26:04.490Z,997.5
2018-04-28T01:27:04.471Z,997.49
2018-04-28T01:28:04.444Z,997.51
2018-04-28T01:29:04.421Z,997.54
2018-04-28T01:30:04.487Z,997.56
2018-04-28T01:31:04.375Z,997.55
2018-04-28T01:32:04.358Z,997.52
2018-04-28T01:33:04.330Z,997.53
2018-04-28T01:34:04.311Z,997.49
2018-04-28T01:35:04.284Z,997.54
2018-04-28T01:36:04.262Z,997.53
2018-04-28T01:37:04.238Z,997.52
2018-04-28T01:38:04.216Z,997.61
2018-04-28T01:39:04.196Z,997.57
2018-04-28T01:40:04.171Z,997.6
2018-04-28T01:41:04.154Z,997.58
2018-04-28T01:42:04.127Z,997.6
2018-04-28T01:43:04.103Z,997.62
2018-04-28T01:44:04.080Z,997.67
2018-04-28T01:45:04.059Z,997.69
2018-04-28T01:46:04.036Z,997.65
2018-04-28T01:47:04.011Z,997.63
2018-04-28T01:48:04.083Z,997.61
2018-04-28T01:49:03.967Z,997.6
2018-04-28T01:50:03.943Z,997.65
2018-04-28T01:51:03.918Z,997.63
2018-04-28T01:52:03.897Z,997.65
2018-04-28T01:53:03.874Z,997.64
2018-04-28T01:54:03.852Z,997.65
2018-04-28T01:55:03.832Z,997.67
2018-04-28T01:56:03.809Z,997.67
2018-04-28T01:57:03.783Z,997.65
2018-04-28T01:58:03.759Z,997.62
2018-04-28T01:59:03.738Z,997.63
2018-04-28T02:00:03.713Z,997.7
2018-04-28T02:01:03.691Z,997.65
2018-04-28T02:02:03.668Z,997.64
2018-04-28T02:03:03.655Z,997.65
2018-04-28T02:04:03.622Z,997.67
2018-04-28T02:05:03.599Z,997.68
2018-04-28T02:06:03.577Z,997.68
2018-04-28T02:07:03.553Z,997.7
2018-04-28T02:08:03.529Z,997.72
2018-04-28T02:09:03.506Z,997.74
2018-04-28T02:10:03.482Z,997.74
2018-04-28T02:11:03.460Z,997.73
2018-04-28T02:12:03.437Z,997.69
2018-04-28T02:13:03.414Z,997.72
2018-04-28T02:14:03.390Z,997.74
2018-04-28T02:15:03.369Z,997.74
2018-04-28T02:16:03.343Z,997.75
2018-04-28T02:17:03.321Z,997.77
2018-04-28T02:18:03.298Z,997.78
2018-04-28T02:19:03.275Z,997.81
2018-04-28T02:20:03.253Z,997.82
2018-04-28T02:21:03.233Z,997.84
2018-04-28T02:22:03.206Z,997.87
2018-04-28T02:23:03.183Z,997.92
2018-04-28T02:24:03.160Z,997.92
2018-04-28T02:25:03.137Z,997.92
2018-04-28T02:26:03.113Z,997.93
2018-04-28T02:27:03.090Z,997.93
2018-04-28T02:28:03.067Z,997.93
2018-04-28T02:29:03.042Z,997.89
2018-04-28T02:30:03.025Z,997.96
2018-04-28T02:31:03.000Z,997.96
2018-04-28T02:32:02.971Z,997.95
2018-04-28T02:33:02.968Z,997.96
2018-04-28T02:34:02.925Z,998
2018-04-28T02:35:02.901Z,998.01
2018-04-28T02:36:02.877Z,997.98
2018-04-28T02:37:02.856Z,998.02
2018-04-28T02:38:02.832Z,997.98
2018-04-28T02:39:02.809Z,998.04
2018-04-28T02:40:02.786Z,998.05
2018-04-28T02:41:02.761Z,998.06
2018-04-28T02:42:02.738Z,998.05
2018-04-28T02:43:02.714Z,998.09
2018-04-28T02:44:02.692Z,998.12
2018-04-28T02:45:02.669Z,998.11
2018-04-28T02:46:02.644Z,998.08
2018-04-28T02:47:02.621Z,998.14
2018-04-28T02:48:02.598Z,998.14
2018-04-28T02:49:02.573Z,998.11
2018-04-28T02:50:02.578Z,998.11
2018-04-28T02:51:02.527Z,998.08
2018-04-28T02:52:02.503Z,998.08
2018-04-28T02:53:02.479Z,998.18
2018-04-28T02:54:02.457Z,998.11
2018-04-28T02:55:02.433Z,998.13
2018-04-28T02:56:02.408Z,998.13
2018-04-28T02:57:02.394Z,998.14
2018-04-28T02:58:02.364Z,998.11
2018-04-28T02:59:02.339Z,998.18
2018-04-28T03:00:02.314Z,998.15
2018-04-28T03:01:02.292Z,998.14
2018-04-28T03:02:02.269Z,998.18
2018-04-28T03:03:02.244Z,998.18
2018-04-28T03:04:02.221Z,998.17
2018-04-28T03:05:02.199Z,998.21
2018-04-28T03:06:02.175Z,998.16
2018-04-28T03:07:02.150Z,998.2
2018-04-28T03:08:02.129Z,998.22
2018-04-28T03:09:02.108Z,998.22
2018-04-28T03:10:02.097Z,998.26
2018-04-28T03:11:02.058Z,998.16
2018-04-28T03:12:02.035Z,998.18
2018-04-28T03:13:02.016Z,998.14
2018-04-28T03:14:01.987Z,998.14
2018-04-28T03:15:01.964Z,998.16
2018-04-28T03:16:01.940Z,998.15
2018-04-28T03:17:01.916Z,998.19
2018-04-28T03:18:01.892Z,998.21
2018-04-28T03:19:01.868Z,998.17
2018-04-28T03:20:01.846Z,998.2
2018-04-28T03:21:01.821Z,998.21
2018-04-28T03:22:01.820Z,998.23
2018-04-28T03:23:01.775Z,998.21
2018-04-28T03:24:01.756Z,998.27
2018-04-28T03:25:01.725Z,998.23
2018-04-28T03:26:01.704Z,998.22
2018-04-28T03:27:01.680Z,998.22
2018-04-28T03:28:01.658Z,998.24
2018-04-28T03:29:01.633Z,998.23
2018-04-28T03:30:01.611Z,998.18
2018-04-28T03:31:01.592Z,998.2
2018-04-28T03:32:01.563Z,998.24
2018-04-28T03:33:01.539Z,998.27
2018-04-28T03:34:01.516Z,998.21
2018-04-28T03:35:01.493Z,998.24
2018-04-28T03:36:01.469Z,998.22
2018-04-28T03:37:01.445Z,998.26
2018-04-28T03:38:01.421Z,998.2
2018-04-28T03:39:01.398Z,998.17
2018-04-28T03:40:01.377Z,998.18
2018-04-28T03:41:01.350Z,998.21
2018-04-28T03:42:01.326Z,998.18
2018-04-28T03:43:01.307Z,998.22
2018-04-28T03:44:01.278Z,998.21
2018-04-28T03:45:01.255Z,998.24
2018-04-28T03:46:01.232Z,998.21
2018-04-28T03:47:01.214Z,998.22
2018-04-28T03:48:01.184Z,998.23
2018-04-28T03:49:01.165Z,998.26
2018-04-28T03:50:01.143Z,998.25
2018-04-28T03:51:01.113Z,998.26
2018-04-28T03:52:01.094Z,998.26
2018-04-28T03:53:01.067Z,998.24
2018-04-28T03:54:01.042Z,998.26
2018-04-28T03:55:01.020Z,998.21
2018-04-28T03:56:00.996Z,998.23
2018-04-28T03:57:00.973Z,998.21
2018-04-28T03:58:00.949Z,998.26
2018-04-28T03:59:00.925Z,998.25
2018-04-28T04:00:00.908Z,998.26
2018-04-28T04:01:00.879Z,998.24
2018-04-28T04:02:00.854Z,998.29
2018-04-28T04:03:00.831Z,998.26
2018-04-28T04:04:00.811Z,998.27
2018-04-28T04:05:00.784Z,998.27
2018-04-28T04:06:00.759Z,998.27
2018-04-28T04:07:00.735Z,998.3
2018-04-28T04:08:00.713Z,998.28
2018-04-28T04:09:00.688Z,998.25
2018-04-28T04:10:00.664Z,998.29
2018-04-28T04:11:00.643Z,998.26
2018-04-28T04:12:00.618Z,998.25
2018-04-28T04:13:00.595Z,998.28
2018-04-28T04:14:00.570Z,998.27
2018-04-28T04:15:00.546Z,998.26
2018-04-28T04:16:00.523Z,998.27
2018-04-28T04:17:00.499Z,998.32
2018-04-28T04:18:00.476Z,998.35
2018-04-28T04:19:00.453Z,998.37
2018-04-28T04:20:00.429Z,998.4
2018-04-28T04:21:00.405Z,998.39
2018-04-28T04:22:00.381Z,998.4
2018-04-28T04:23:00.361Z,998.44
2018-04-28T04:24:00.334Z,998.43
2018-04-28T04:25:00.310Z,998.48
2018-04-28T04:26:00.286Z,998.48
2018-04-28T04:27:00.263Z,998.46
2018-04-28T04:28:00.239Z,998.5
2018-04-28T04:29:00.217Z,998.54
2018-04-28T04:30:00.192Z,998.52
2018-04-28T04:31:00.169Z,998.54
2018-04-28T04:32:00.159Z,998.53
2018-04-28T04:33:00.125Z,998.54
2018-04-28T04:34:00.098Z,998.55
2018-04-28T04:35:00.074Z,998.57
2018-04-28T04:36:00.052Z,998.58
2018-04-28T04:37:00.029Z,998.59
2018-04-28T04:38:00.004Z,998.55
2018-04-28T04:38:59.981Z,998.58
2018-04-28T04:39:59.958Z,998.56
2018-04-28T04:40:59.933Z,998.57
2018-04-28T04:41:59.909Z,998.56
2018-04-28T04:42:59.887Z,998.59
2018-04-28T04:43:59.862Z,998.56
2018-04-28T04:44:59.839Z,998.63
2018-04-28T04:45:59.817Z,998.61
2018-04-28T04:46:59.792Z,998.63
2018-04-28T04:47:59.770Z,998.64
2018-04-28T04:48:59.753Z,998.68
2018-04-28T04:49:59.725Z,998.66
2018-04-28T04:50:59.702Z,998.71
2018-04-28T04:51:59.677Z,998.74
2018-04-28T04:52:59.653Z,998.71
2018-04-28T04:53:59.631Z,998.73
2018-04-28T04:54:59.608Z,998.73
2018-04-28T04:55:59.589Z,998.73
2018-04-28T04:56:59.560Z,998.76
2018-04-28T04:57:59.537Z,998.73
2018-04-28T04:58:59.514Z,998.74
2018-04-28T04:59:59.490Z,998.8
2018-04-28T05:00:59.471Z,998.78
2018-04-28T05:01:59.446Z,998.78
2018-04-28T05:02:59.423Z,998.77
2018-04-28T05:03:59.399Z,998.8
2018-04-28T05:04:59.375Z,998.79
2018-04-28T05:05:59.355Z,998.8
2018-04-28T05:06:59.331Z,998.83
2018-04-28T05:07:59.308Z,998.9
2018-04-28T05:08:59.286Z,998.88
2018-04-28T05:09:59.264Z,998.88
2018-04-28T05:10:59.238Z,998.9
2018-04-28T05:11:59.216Z,998.91
2018-04-28T05:12:59.193Z,998.92
2018-04-28T05:13:59.174Z,998.89
2018-04-28T05:14:59.148Z,998.93
2018-04-28T05:15:59.125Z,998.95
2018-04-28T05:16:59.103Z,998.93
2018-04-28T05:17:59.080Z,998.97
2018-04-28T05:18:59.057Z,998.92
2018-04-28T05:19:59.037Z,998.94
2018-04-28T05:20:59.022Z,998.94
2018-04-28T05:21:58.990Z,998.93
2018-04-28T05:22:58.968Z,998.94
2018-04-28T05:23:58.945Z,999
2018-04-28T05:24:58.923Z,999
2018-04-28T05:25:58.899Z,999.04
2018-04-28T05:26:58.880Z,999.02
2018-04-28T05:27:58.854Z,999.03
2018-04-28T05:28:58.832Z,999.02
2018-04-28T05:29:58.810Z,999.04
2018-04-28T05:30:58.791Z,999.07
2018-04-28T05:31:58.766Z,999.08
2018-04-28T05:32:58.743Z,999.05
2018-04-28T05:33:58.721Z,999.04
2018-04-28T05:34:58.698Z,999.09
2018-04-28T05:35:58.682Z,999.16
2018-04-28T05:36:58.653Z,999.15
2018-04-28T05:37:58.631Z,999.14
2018-04-28T05:38:58.610Z,999.19
2018-04-28T05:39:58.588Z,999.18
2018-04-28T05:40:58.565Z,999.18
2018-04-28T05:41:58.546Z,999.21
2018-04-28T05:42:58.520Z,999.19
2018-04-28T05:43:58.499Z,999.22
2018-04-28T05:44:58.488Z,999.2
2018-04-28T05:45:58.454Z,999.27
2018-04-28T05:46:58.433Z,999.22
2018-04-28T05:47:58.411Z,999.24
2018-04-28T05:48:58.390Z,999.29
2018-04-28T05:49:58.369Z,999.26
2018-04-28T05:50:58.345Z,999.29
2018-04-28T05:51:58.323Z,999.3
2018-04-28T05:52:58.302Z,999.34
2018-04-28T05:53:58.286Z,999.35
2018-04-28T05:54:58.262Z,999.38
2018-04-28T05:55:58.238Z,999.37
2018-04-28T05:56:58.219Z,999.37
2018-04-28T05:57:58.196Z,999.32
2018-04-28T05:58:58.173Z,999.3
2018-04-28T05:59:58.152Z,999.28
2018-04-28T06:00:58.133Z,999.33
2018-04-28T06:01:58.111Z,999.34
2018-04-28T06:02:58.089Z,999.36
2018-04-28T06:03:58.069Z,999.34
2018-04-28T06:04:58.047Z,999.39
2018-04-28T06:05:58.028Z,999.36
2018-04-28T06:06:58.007Z,999.46
2018-04-28T06:07:57.994Z,999.41
2018-04-28T06:08:57.975Z,999.43
2018-04-28T06:09:57.950Z,999.47
2018-04-28T06:10:57.935Z,999.48
2018-04-28T06:11:57.907Z,999.46
2018-04-28T06:12:57.888Z,999.5
2018-04-28T06:13:57.869Z,999.46
2018-04-28T06:14:57.852Z,999.44
2018-04-28T06:15:57.832Z,999.5
2018-04-28T06:16:57.813Z,999.54
2018-04-28T06:17:57.795Z,999.57
2018-04-28T06:18:57.777Z,999.55
2018-04-28T06:19:57.835Z,999.53
2018-04-28T06:20:57.740Z,999.55
2018-04-28T06:21:57.722Z,999.58
2018-04-28T06:22:57.705Z,999.55
2018-04-28T06:23:57.686Z,999.53
2018-04-28T06:24:57.666Z,999.55
2018-04-28T06:25:57.669Z,999.6
2018-04-28T06:26:57.632Z,999.56
2018-04-28T06:27:57.613Z,999.5
2018-04-28T06:28:57.595Z,999.51
2018-04-28T06:29:57.576Z,999.55
2018-04-28T06:30:57.559Z,999.58
2018-04-28T06:31:57.541Z,999.54
2018-04-28T06:32:57.523Z,999.54
2018-04-28T06:33:57.505Z,999.58
2018-04-28T06:34:57.485Z,999.55
2018-04-28T06:35:57.469Z,999.61
2018-04-28T06:36:57.451Z,999.57
2018-04-28T06:37:57.433Z,999.57
2018-04-28T06:38:57.415Z,999.64
2018-04-28T06:39:57.398Z,999.65
2018-04-28T06:40:57.379Z,999.61
2018-04-28T06:41:57.362Z,999.64
2018-04-28T06:42:57.344Z,999.63
2018-04-28T06:43:57.326Z,999.64
2018-04-28T06:44:57.310Z,999.64
2018-04-28T06:45:57.292Z,999.65
2018-04-28T06:46:57.274Z,999.69
2018-04-28T06:47:57.257Z,999.69
2018-04-28T06:48:57.243Z,999.67
2018-04-28T06:49:57.222Z,999.68
2018-04-28T06:50:57.207Z,999.73
2018-04-28T06:51:57.187Z,999.71
2018-04-28T06:52:57.177Z,999.7
2018-04-28T06:53:57.154Z,999.7
2018-04-28T06:54:57.137Z,999.71
2018-04-28T06:55:57.120Z,999.75
2018-04-28T06:56:57.103Z,999.75
2018-04-28T06:57:57.085Z,999.8
2018-04-28T06:58:57.067Z,999.8
2018-04-28T06:59:57.051Z,999.8
2018-04-28T07:00:57.033Z,999.79
2018-04-28T07:01:57.015Z,999.85
2018-04-28T07:02:56.999Z,999.82
2018-04-28T07:03:56.980Z,999.82
2018-04-28T07:04:56.963Z,999.88
2018-04-28T07:05:56.946Z,999.85
2018-04-28T07:06:56.927Z,999.82
2018-04-28T07:07:56.910Z,999.89
2018-04-28T07:08:56.894Z,999.85
2018-04-28T07:09:56.876Z,999.84
2018-04-28T07:10:56.858Z,999.86
2018-04-28T07:11:56.847Z,999.87
2018-04-28T07:12:56.823Z,999.78
2018-04-28T07:13:56.807Z,999.81
2018-04-28T07:14:56.798Z,999.85
2018-04-28T07:15:56.774Z,999.8
2018-04-28T07:16:56.758Z,999.84
2018-04-28T07:17:56.741Z,999.83
2018-04-28T07:18:56.724Z,999.74
2018-04-28T07:19:56.709Z,999.75
2018-04-28T07:20:56.701Z,999.82
2018-04-28T07:21:56.680Z,999.84
2018-04-28T07:22:56.670Z,999.86
2018-04-28T07:23:56.648Z,999.86
2018-04-28T07:24:56.632Z,999.88
2018-04-28T07:25:56.616Z,999.9
2018-04-28T07:26:56.599Z,999.87
2018-04-28T07:27:56.586Z,999.91
2018-04-28T07:28:56.576Z,999.92
2018-04-28T07:29:56.554Z,999.87
2018-04-28T07:30:56.539Z,999.98
2018-04-28T07:31:56.523Z,999.97
2018-04-28T07:32:56.507Z,1000
2018-04-28T07:33:56.493Z,1000.04
2018-04-28T07:34:56.475Z,1000.04
2018-04-28T07:35:56.458Z,1000.02
2018-04-28T07:36:56.441Z,1000.06
2018-04-28T07:37:56.424Z,1000.08
2018-04-28T07:38:56.409Z,999.96
2018-04-28T07:39:56.393Z,999.98
2018-04-28T07:40:56.381Z,999.96
2018-04-28T07:41:56.360Z,1000.03
2018-04-28T07:42:56.343Z,1000.04
2018-04-28T07:43:56.326Z,1000.05
2018-04-28T07:44:56.315Z,999.93
2018-04-28T07:45:56.293Z,1000.02
2018-04-28T07:46:56.276Z,1000.04
2018-04-28T07:47:56.258Z,1000.02
2018-04-28T07:48:56.242Z,1000.08
2018-04-28T07:49:56.227Z,1000.03
2018-04-28T07:50:56.208Z,1000.02
2018-04-28T07:51:56.193Z,1000.04
2018-04-28T07:52:56.184Z,1000.1
2018-04-28T07:53:56.160Z,1000.08
2018-04-28T07:54:56.143Z,1000.1
2018-04-28T07:55:56.126Z,1000.07
2018-04-28T07:56:56.108Z,1000.07
2018-04-28T07:57:56.093Z,1000.13
2018-04-28T07:58:56.076Z,1000.08
2018-04-28T07:59:56.060Z,1000.02
2018-04-28T08:00:56.044Z,1000.09
2018-04-28T08:01:56.028Z,999.98
2018-04-28T08:02:56.010Z,1000.03
2018-04-28T08:03:55.994Z,1000
2018-04-28T08:04:55.978Z,1000.1
2018-04-28T08:05:55.962Z,1000.11
2018-04-28T08:06:56.030Z,1000.12
2018-04-28T08:07:55.929Z,1000.19
2018-04-28T08:08:55.917Z,1000.14
2018-04-28T08:09:55.896Z,1000.13
2018-04-28T08:10:55.880Z,1000.06
2018-04-28T08:11:55.864Z,1000.1
2018-04-28T08:12:55.897Z,1000.11
2018-04-28T08:13:56.494Z,1000.14
2018-04-28T08:14:55.815Z,1000.16
2018-04-28T08:15:55.800Z,1000.11
2018-04-28T08:16:55.784Z,1000.19
2018-04-28T08:17:55.768Z,1000.13
2018-04-28T08:18:55.752Z,1000.16
2018-04-28T08:19:55.741Z,1000.11
2018-04-28T08:20:55.720Z,1000.13
2018-04-28T08:21:55.703Z,1000.14
2018-04-28T08:22:55.688Z,1000.18
2018-04-28T08:23:55.673Z,1000.13
2018-04-28T08:24:55.656Z,1000.22
2018-04-28T08:25:55.640Z,1000.13
2018-04-28T08:26:55.625Z,1000.21
2018-04-28T08:27:55.609Z,1000.14
2018-04-28T08:28:55.593Z,1000.16
2018-04-28T08:29:55.579Z,1000.13
2018-04-28T08:30:55.563Z,1000.12
2018-04-28T08:31:55.547Z,1000.23
2018-04-28T08:32:55.534Z,1000.24
2018-04-28T08:33:55.524Z,1000.2
2018-04-28T08:34:55.502Z,1000.18
2018-04-28T08:35:55.487Z,1000.21
2018-04-28T08:36:55.532Z,1000.23
2018-04-28T08:37:55.457Z,1000.23
2018-04-28T08:38:55.443Z,1000.18
2018-04-28T08:39:55.429Z,1000.26
2018-04-28T08:40:55.412Z,1000.21
2018-04-28T08:41:55.399Z,1000.24
2018-04-28T08:42:55.382Z,1000.14
2018-04-28T08:43:55.369Z,1000.22
2018-04-28T08:44:55.358Z,1000.2
2018-04-28T08:45:55.342Z,1000.21
2018-04-28T08:46:55.326Z,1000.25
2018-04-28T08:47:55.313Z,1000.19
2018-04-28T08:48:55.299Z,1000.24
2018-04-28T08:49:55.284Z,1000.19
2018-04-28T08:50:55.271Z,1000.18
2018-04-28T08:51:55.256Z,1000.21
2018-04-28T08:52:55.244Z,1000.2
2018-04-28T08:53:55.227Z,1000.16
2018-04-28T08:54:55.215Z,1000.25
2018-04-28T08:55:55.200Z,1000.16
2018-04-28T08:56:55.186Z,1000.21
2018-04-28T08:57:55.175Z,1000.31
2018-04-28T08:58:55.164Z,1000.27
2018-04-28T08:59:55.145Z,1000.28
2018-04-28T09:00:55.131Z,1000.26
2018-04-28T09:01:55.116Z,1000.26
2018-04-28T09:02:55.100Z,1000.26
2018-04-28T09:03:55.086Z,1000.23
2018-04-28T09:04:55.073Z,1000.26
2018-04-28T09:05:55.055Z,1000.27
2018-04-28T09:06:55.043Z,1000.26
2018-04-28T09:07:55.028Z,1000.19
2018-04-28T09:08:55.013Z,1000.22
2018-04-28T09:09:54.998Z,1000.31
2018-04-28T09:10:54.984Z,1000.25
2018-04-28T09:11:54.971Z,1000.24
2018-04-28T09:12:54.958Z,1000.29
2018-04-28T09:13:54.944Z,1000.26
2018-04-28T09:14:54.931Z,1000.28
2018-04-28T09:15:54.918Z,1000.26
2018-04-28T09:16:54.906Z,1000.28
2018-04-28T09:17:54.895Z,1000.27
2018-04-28T09:18:54.883Z,1000.28
2018-04-28T09:19:54.870Z,1000.28
2018-04-28T09:20:54.861Z,1000.29
2018-04-28T09:21:54.848Z,1000.27
2018-04-28T09:22:54.836Z,1000.32
2018-04-28T09:23:54.824Z,1000.27
2018-04-28T09:24:54.812Z,1000.29
2018-04-28T09:25:54.801Z,1000.35
2018-04-28T09:26:54.790Z,1000.32
2018-04-28T09:27:54.777Z,1000.38
2018-04-28T09:28:54.767Z,1000.36
2018-04-28T09:29:54.756Z,1000.34
2018-04-28T09:30:54.743Z,1000.27
2018-04-28T09:31:54.732Z,1000.34
2018-04-28T09:32:54.731Z,1000.34
2018-04-28T09:33:54.707Z,1000.34
2018-04-28T09:34:54.696Z,1000.34
2018-04-28T09:35:54.685Z,1000.33
2018-04-28T09:36:54.674Z,1000.36
2018-04-28T09:37:54.659Z,1000.41
2018-04-28T09:38:54.648Z,1000.4
2018-04-28T09:39:54.650Z,1000.49
2018-04-28T09:40:54.626Z,1000.39
2018-04-28T09:41:54.612Z,1000.37
2018-04-28T09:42:54.600Z,1000.38
2018-04-28T09:43:54.587Z,1000.34
2018-04-28T09:44:54.578Z,1000.4
2018-04-28T09:45:54.564Z,1000.34
2018-04-28T09:46:54.551Z,1000.33
2018-04-28T09:47:54.537Z,1000.32
2018-04-28T09:48:54.529Z,1000.29
2018-04-28T09:49:54.513Z,1000.4
2018-04-28T09:50:54.501Z,1000.33
2018-04-28T09:51:54.489Z,1000.4
2018-04-28T09:52:54.476Z,1000.43
2018-04-28T09:53:54.466Z,1000.46
2018-04-28T09:54:54.453Z,1000.34
2018-04-28T09:55:54.439Z,1000.36
2018-04-28T09:56:54.428Z,1000.32
2018-04-28T09:57:54.417Z,1000.36
2018-04-28T09:58:54.473Z,1000.35
2018-04-28T09:59:54.391Z,1000.35
2018-04-28T10:00:54.380Z,1000.4
2018-04-28T10:01:54.367Z,1000.43
2018-04-28T10:02:54.392Z,1000.35
2018-04-28T10:03:54.343Z,1000.37
2018-04-28T10:04:54.367Z,1000.36
2018-04-28T10:05:54.335Z,1000.41
2018-04-28T10:06:54.310Z,1000.37
2018-04-28T10:07:54.294Z,1000.39
2018-04-28T10:08:54.281Z,1000.42
2018-04-28T10:09:54.268Z,1000.34
2018-04-28T10:10:54.254Z,1000.31
2018-04-28T10:11:54.243Z,1000.4
2018-04-28T10:12:54.235Z,1000.38
2018-04-28T10:13:54.218Z,1000.33
2018-04-28T10:14:54.203Z,1000.29
2018-04-28T10:15:54.191Z,1000.36
2018-04-28T10:16:54.272Z,1000.31
2018-04-28T10:17:54.163Z,1000.38
2018-04-28T10:18:54.151Z,1000.32
2018-04-28T10:19:54.141Z,1000.4
2018-04-28T10:20:54.142Z,1000.25
2018-04-28T10:21:54.110Z,1000.29
2018-04-28T10:22:54.099Z,1000.27
2018-04-28T10:23:54.083Z,1000.32
2018-04-28T10:24:54.069Z,1000.34
2018-04-28T10:25:54.055Z,1000.26
2018-04-28T10:26:54.044Z,1000.25
2018-04-28T10:27:54.029Z,1000.25
2018-04-28T10:28:54.014Z,1000.26
2018-04-28T10:29:53.999Z,1000.33
2018-04-28T10:30:54.058Z,1000.26
2018-04-28T10:31:53.977Z,1000.28
2018-04-28T10:32:53.957Z,1000.28
2018-04-28T10:33:53.943Z,1000.3
2018-04-28T10:34:53.929Z,1000.35
2018-04-28T10:35:53.913Z,1000.25
2018-04-28T10:36:53.901Z,1000.29
2018-04-28T10:37:53.887Z,1000.34
2018-04-28T10:38:53.872Z,1000.36
2018-04-28T10:39:53.856Z,1000.34
2018-04-28T10:40:53.843Z,1000.33
2018-04-28T10:41:53.836Z,1000.23
2018-04-28T10:42:53.816Z,1000.29
2018-04-28T10:43:53.801Z,1000.17
2018-04-28T10:44:53.786Z,1000.32
2018-04-28T10:45:53.773Z,1000.32
2018-04-28T10:46:53.758Z,1000.27
2018-04-28T10:47:53.746Z,1000.27
2018-04-28T10:48:53.730Z,1000.35
2018-04-28T10:49:53.716Z,1000.28
2018-04-28T10:50:53.701Z,1000.37
2018-04-28T10:51:53.687Z,1000.3
2018-04-28T10:52:53.673Z,1000.31
2018-04-28T10:53:53.736Z,1000.36
2018-04-28T10:54:53.643Z,1000.31
2018-04-28T10:55:53.629Z,1000.36
2018-04-28T10:56:53.619Z,1000.38
2018-04-28T10:57:53.600Z,1000.41
2018-04-28T10:58:53.584Z,1000.32
2018-04-28T10:59:53.570Z,1000.33
2018-04-28T11:00:53.563Z,1000.38
2018-04-28T11:01:53.541Z,1000.39
2018-04-28T11:02:53.526Z,1000.34
2018-04-28T11:03:53.513Z,1000.32
2018-04-28T11:04:53.500Z,1000.43
2018-04-28T11:05:53.484Z,1000.44
2018-04-28T11:06:53.474Z,1000.34
2018-04-28T11:07:53.454Z,1000.37
2018-04-28T11:08:53.440Z,1000.4
2018-04-28T11:09:53.425Z,1000.42
2018-04-28T11:10:53.412Z,1000.41
2018-04-28T11:11:53.398Z,1000.47
2018-04-28T11:12:53.387Z,1000.5
2018-04-28T11:13:53.402Z,1000.56
2018-04-28T11:14:53.353Z,1000.54
2018-04-28T11:15:53.339Z,1000.51
2018-04-28T11:16:53.324Z,1000.5
2018-04-28T11:17:53.310Z,1000.45
2018-04-28T11:18:53.295Z,1000.53
2018-04-28T11:19:53.327Z,1000.5
2018-04-28T11:20:53.265Z,1000.52
2018-04-28T11:21:53.250Z,1000.55
2018-04-28T11:22:53.235Z,1000.47
2018-04-28T11:23:53.220Z,1000.52
2018-04-28T11:24:53.204Z,1000.64
2018-04-28T11:25:53.213Z,1000.53
2018-04-28T11:26:53.176Z,1000.52
2018-04-28T11:27:53.159Z,1000.42
2018-04-28T11:28:53.145Z,1000.5
2018-04-28T11:29:53.132Z,1000.49
2018-04-28T11:30:53.116Z,1000.5
2018-04-28T11:31:53.101Z,1000.47
2018-04-28T11:32:53.155Z,1000.44
2018-04-28T11:33:53.074Z,1000.48
2018-04-28T11:34:53.064Z,1000.44
2018-04-28T11:35:53.050Z,1000.43
2018-04-28T11:36:53.032Z,1000.46
2018-04-28T11:37:53.042Z,1000.49
2018-04-28T11:38:53.004Z,1000.49
2018-04-28T11:39:52.988Z,1000.45
2018-04-28T11:40:52.978Z,1000.39
2018-04-28T11:41:52.960Z,1000.4
2018-04-28T11:42:52.950Z,1000.52
2018-04-28T11:43:52.932Z,1000.44
2018-04-28T11:44:52.924Z,1000.37
2018-04-28T11:45:52.904Z,1000.41
2018-04-28T11:46:52.890Z,1000.42
2018-04-28T11:47:52.878Z,1000.4
2018-04-28T11:48:52.863Z,1000.36
2018-04-28T11:49:52.851Z,1000.39
2018-04-28T11:50:52.836Z,1000.32
2018-04-28T11:51:52.824Z,1000.39
2018-04-28T11:52:52.811Z,1000.32
2018-04-28T11:53:52.797Z,1000.31
2018-04-28T11:54:52.785Z,1000.36
2018-04-28T11:55:52.771Z,1000.4
2018-04-28T11:56:53.049Z,1000.32
2018-04-28T11:57:52.748Z,1000.32
2018-04-28T11:58:52.748Z,1000.32
2018-04-28T11:59:52.719Z,1000.29
2018-04-28T12:00:52.707Z,1000.3
2018-04-28T12:01:52.694Z,1000.31
2018-04-28T12:02:52.687Z,1000.29
2018-04-28T12:03:52.668Z,1000.34
2018-04-28T12:04:52.656Z,1000.34
2018-04-28T12:05:52.750Z,1000.37
2018-04-28T12:06:52.630Z,1000.43
2018-04-28T12:07:52.615Z,1000.42
2018-04-28T12:08:52.604Z,1000.34
2018-04-28T12:09:52.590Z,1000.46
2018-04-28T12:10:52.576Z,1000.34
2018-04-28T12:11:52.563Z,1000.33
2018-04-28T12:12:52.550Z,1000.32
2018-04-28T12:13:52.536Z,1000.3
2018-04-28T12:14:52.522Z,1000.33
2018-04-28T12:15:52.507Z,1000.33
2018-04-28T12:16:52.496Z,1000.33
2018-04-28T12:17:52.482Z,1000.34
2018-04-28T12:18:52.470Z,1000.36
2018-04-28T12:19:52.455Z,1000.37
2018-04-28T12:20:52.444Z,1000.33
2018-04-28T12:21:52.430Z,1000.34